sensor_id;sensor_type;location;lat;lon;timestamp;temperature;humidity
14154;DHT22;7157;53.144;7.570;2022-10-26T00:03:15;11.51;88.70
14154;DHT22;7157;53.144;7.570;2022-10-26T00:13:18;11.47;88.41
14154;DHT22;7157;53.144;7.570;2022-10-26T00:23:22;11.33;88.25
14154;DHT22;7157;53.144;7.570;2022-10-26T00:33:24;11.26;88.28
14154;DHT22;7157;53.144;7.570;2022-10-26T00:43:37;11.10;88.10
14154;DHT22;7157;53.144;7.570;2022-10-26T00:53:40;10.93;88.18
14154;DHT22;7157;53.144;7.570;2022-10-26T01:03:45;10.82;88.40
14154;DHT22;7157;53.144;7.570;2022-10-26T01:13:50;10.79;88.47
14154;DHT22;7157;53.144;7.570;2022-10-26T01:34:32;10.80;88.76
14154;DHT22;7157;53.144;7.570;2022-10-26T01:44:38;10.80;88.92
14154;DHT22;7157;53.144;7.570;2022-10-26T01:54:44;10.84;89.33
14154;DHT22;7157;53.144;7.570;2022-10-26T02:05:00;10.85;89.79
14154;DHT22;7157;53.144;7.570;2022-10-26T02:15:16;10.86;89.67
14154;DHT22;7157;53.144;7.570;2022-10-26T02:25:24;10.88;89.82
14154;DHT22;7157;53.144;7.570;2022-10-26T02:35:31;10.81;89.71
14154;DHT22;7157;53.144;7.570;2022-10-26T02:45:38;10.80;89.57
14154;DHT22;7157;53.144;7.570;2022-10-26T02:55:48;10.74;89.60
14154;DHT22;7157;53.144;7.570;2022-10-26T03:05:52;10.69;89.58
14154;DHT22;7157;53.144;7.570;2022-10-26T03:15:56;10.65;89.54
14154;DHT22;7157;53.144;7.570;2022-10-26T03:25:58;10.62;89.64
14154;DHT22;7157;53.144;7.570;2022-10-26T03:36:03;10.63;89.66
14154;DHT22;7157;53.144;7.570;2022-10-26T03:46:06;10.59;89.69
14154;DHT22;7157;53.144;7.570;2022-10-26T03:56:10;10.58;89.73
14154;DHT22;7157;53.144;7.570;2022-10-26T04:06:13;10.53;89.77
14154;DHT22;7157;53.144;7.570;2022-10-26T04:16:17;10.41;90.10
14154;DHT22;7157;53.144;7.570;2022-10-26T04:26:20;10.48;89.97
14154;DHT22;7157;53.144;7.570;2022-10-26T04:36:24;10.44;90.12
14154;DHT22;7157;53.144;7.570;2022-10-26T04:46:26;10.44;90.18
14154;DHT22;7157;53.144;7.570;2022-10-26T04:56:31;10.46;90.13
14154;DHT22;7157;53.144;7.570;2022-10-26T05:06:34;10.39;90.82
14154;DHT22;7157;53.144;7.570;2022-10-26T05:16:38;10.46;90.69
14154;DHT22;7157;53.144;7.570;2022-10-26T05:26:41;10.42;91.05
14154;DHT22;7157;53.144;7.570;2022-10-26T05:36:46;10.45;90.69
14154;DHT22;7157;53.144;7.570;2022-10-26T05:46:48;10.51;91.18
14154;DHT22;7157;53.144;7.570;2022-10-26T05:56:53;10.63;91.54
14154;DHT22;7157;53.144;7.570;2022-10-26T06:06:56;10.79;92.03
14154;DHT22;7157;53.144;7.570;2022-10-26T06:17:09;10.93;91.85
14154;DHT22;7157;53.144;7.570;2022-10-26T06:27:22;11.00;92.01
14154;DHT22;7157;53.144;7.570;2022-10-26T06:37:29;11.12;91.95
14154;DHT22;7157;53.144;7.570;2022-10-26T06:47:36;11.18;91.89
14154;DHT22;7157;53.144;7.570;2022-10-26T06:57:42;11.23;91.82
14154;DHT22;7157;53.144;7.570;2022-10-26T07:07:46;11.17;92.07
14154;DHT22;7157;53.144;7.570;2022-10-26T07:17:51;11.27;92.07
14154;DHT22;7157;53.144;7.570;2022-10-26T07:27:56;11.34;91.86
14154;DHT22;7157;53.144;7.570;2022-10-26T07:38:01;11.45;91.59
14154;DHT22;7157;53.144;7.570;2022-10-26T07:48:05;11.59;91.55
14154;DHT22;7157;53.144;7.570;2022-10-26T07:58:09;11.85;91.37
14154;DHT22;7157;53.144;7.570;2022-10-26T08:08:11;12.08;90.96
14154;DHT22;7157;53.144;7.570;2022-10-26T08:18:15;12.27;90.86
14154;DHT22;7157;53.144;7.570;2022-10-26T08:28:18;12.65;90.42
14154;DHT22;7157;53.144;7.570;2022-10-26T08:38:22;12.89;90.16
14154;DHT22;7157;53.144;7.570;2022-10-26T08:48:28;13.02;89.42
14154;DHT22;7157;53.144;7.570;2022-10-26T08:58:37;13.35;89.18
14154;DHT22;7157;53.144;7.570;2022-10-26T09:08:49;13.79;88.57
14154;DHT22;7157;53.144;7.570;2022-10-26T09:19:07;14.19;87.64
14154;DHT22;7157;53.144;7.570;2022-10-26T09:29:13;14.69;87.07
14154;DHT22;7157;53.144;7.570;2022-10-26T09:39:22;14.87;86.40
14154;DHT22;7157;53.144;7.570;2022-10-26T09:49:35;14.82;86.33
14154;DHT22;7157;53.144;7.570;2022-10-26T09:59:40;15.51;84.68
14154;DHT22;7157;53.144;7.570;2022-10-26T10:09:43;15.85;84.06
14154;DHT22;7157;53.144;7.570;2022-10-26T10:19:47;15.83;83.83
14154;DHT22;7157;53.144;7.570;2022-10-26T10:29:51;16.54;81.77
14154;DHT22;7157;53.144;7.570;2022-10-26T10:40:06;17.10;80.75
14154;DHT22;7157;53.144;7.570;2022-10-26T10:50:16;17.69;78.37
14154;DHT22;7157;53.144;7.570;2022-10-26T11:00:23;18.85;75.67
14154;DHT22;7157;53.144;7.570;2022-10-26T11:10:30;20.76;68.36
14154;DHT22;7157;53.144;7.570;2022-10-26T11:20:38;27.41;44.89
14154;DHT22;7157;53.144;7.570;2022-10-26T11:30:46;23.50;51.85
14154;DHT22;7157;53.144;7.570;2022-10-26T11:40:55;20.51;60.08
14154;DHT22;7157;53.144;7.570;2022-10-26T11:51:03;20.03;62.53
14154;DHT22;7157;53.144;7.570;2022-10-26T12:01:11;25.35;50.43
14154;DHT22;7157;53.144;7.570;2022-10-26T12:11:35;29.67;38.94
14154;DHT22;7157;53.144;7.570;2022-10-26T12:21:40;23.99;50.37
14154;DHT22;7157;53.144;7.570;2022-10-26T12:31:44;24.88;48.72
14154;DHT22;7157;53.144;7.570;2022-10-26T12:41:56;25.31;47.60
14154;DHT22;7157;53.144;7.570;2022-10-26T12:51:59;23.11;53.66
14154;DHT22;7157;53.144;7.570;2022-10-26T13:02:29;21.83;57.49
14154;DHT22;7157;53.144;7.570;2022-10-26T13:12:45;21.72;58.23
14154;DHT22;7157;53.144;7.570;2022-10-26T13:22:50;21.63;59.04
14154;DHT22;7157;53.144;7.570;2022-10-26T13:32:55;21.48;60.28
14154;DHT22;7157;53.144;7.570;2022-10-26T13:43:03;22.64;57.03
14154;DHT22;7157;53.144;7.570;2022-10-26T13:53:11;22.61;58.59
14154;DHT22;7157;53.144;7.570;2022-10-26T14:03:18;21.79;59.71
14154;DHT22;7157;53.144;7.570;2022-10-26T14:13:23;21.20;62.41
14154;DHT22;7157;53.144;7.570;2022-10-26T14:23:32;20.68;64.76
14154;DHT22;7157;53.144;7.570;2022-10-26T14:33:36;20.53;66.11
14154;DHT22;7157;53.144;7.570;2022-10-26T14:43:40;20.36;67.41
14154;DHT22;7157;53.144;7.570;2022-10-26T14:53:47;20.39;68.42
14154;DHT22;7157;53.144;7.570;2022-10-26T15:03:54;20.14;69.65
14154;DHT22;7157;53.144;7.570;2022-10-26T15:13:58;19.68;71.31
14154;DHT22;7157;53.144;7.570;2022-10-26T15:24:16;19.29;72.90
14154;DHT22;7157;53.144;7.570;2022-10-26T15:34:22;19.13;73.41
14154;DHT22;7157;53.144;7.570;2022-10-26T15:44:26;19.06;73.98
14154;DHT22;7157;53.144;7.570;2022-10-26T15:54:29;18.73;75.63
14154;DHT22;7157;53.144;7.570;2022-10-26T16:04:33;18.57;75.99
14154;DHT22;7157;53.144;7.570;2022-10-26T16:14:35;18.32;76.98
14154;DHT22;7157;53.144;7.570;2022-10-26T16:24:59;18.11;78.27
14154;DHT22;7157;53.144;7.570;2022-10-26T16:35:02;17.96;79.01
14154;DHT22;7157;53.144;7.570;2022-10-26T16:45:07;18.06;79.10
14154;DHT22;7157;53.144;7.570;2022-10-26T16:55:10;18.04;79.55
14154;DHT22;7157;53.144;7.570;2022-10-26T17:05:14;17.89;80.33
14154;DHT22;7157;53.144;7.570;2022-10-26T17:15:18;17.80;80.48
14154;DHT22;7157;53.144;7.570;2022-10-26T17:25:23;17.61;80.80
14154;DHT22;7157;53.144;7.570;2022-10-26T17:35:26;17.46;81.15
14154;DHT22;7157;53.144;7.570;2022-10-26T17:45:30;17.29;81.78
14154;DHT22;7157;53.144;7.570;2022-10-26T17:55:33;17.14;82.41
14154;DHT22;7157;53.144;7.570;2022-10-26T18:05:37;17.02;82.93
14154;DHT22;7157;53.144;7.570;2022-10-26T18:15:40;16.84;83.58
14154;DHT22;7157;53.144;7.570;2022-10-26T18:25:44;16.67;84.14
14154;DHT22;7157;53.144;7.570;2022-10-26T18:35:46;16.54;84.75
14154;DHT22;7157;53.144;7.570;2022-10-26T18:45:50;16.42;85.31
14154;DHT22;7157;53.144;7.570;2022-10-26T18:55:59;16.36;85.99
14154;DHT22;7157;53.144;7.570;2022-10-26T19:06:12;16.37;86.19
14154;DHT22;7157;53.144;7.570;2022-10-26T19:16:16;16.48;86.43
14154;DHT22;7157;53.144;7.570;2022-10-26T19:26:41;16.47;86.25
14154;DHT22;7157;53.144;7.570;2022-10-26T19:36:44;16.37;86.74
14154;DHT22;7157;53.144;7.570;2022-10-26T19:46:49;16.27;87.09
14154;DHT22;7157;53.144;7.570;2022-10-26T19:56:51;16.20;87.80
14154;DHT22;7157;53.144;7.570;2022-10-26T20:06:55;16.22;88.35
14154;DHT22;7157;53.144;7.570;2022-10-26T20:17:01;16.28;87.94
14154;DHT22;7157;53.144;7.570;2022-10-26T20:27:06;16.25;87.91
14154;DHT22;7157;53.144;7.570;2022-10-26T20:37:09;16.22;87.67
14154;DHT22;7157;53.144;7.570;2022-10-26T20:47:15;16.10;87.84
14154;DHT22;7157;53.144;7.570;2022-10-26T20:57:21;15.89;88.22
14154;DHT22;7157;53.144;7.570;2022-10-26T21:07:28;15.85;88.51
14154;DHT22;7157;53.144;7.570;2022-10-26T21:17:31;15.80;88.16
14154;DHT22;7157;53.144;7.570;2022-10-26T21:27:36;15.69;88.04
14154;DHT22;7157;53.144;7.570;2022-10-26T21:37:38;15.56;88.25
14154;DHT22;7157;53.144;7.570;2022-10-26T21:47:43;15.48;88.45
14154;DHT22;7157;53.144;7.570;2022-10-26T21:57:46;15.43;88.74
14154;DHT22;7157;53.144;7.570;2022-10-26T22:07:51;15.30;89.62
14154;DHT22;7157;53.144;7.570;2022-10-26T22:17:54;15.27;90.35
14154;DHT22;7157;53.144;7.570;2022-10-26T22:27:58;15.30;90.18
14154;DHT22;7157;53.144;7.570;2022-10-26T22:38:00;15.31;89.89
14154;DHT22;7157;53.144;7.570;2022-10-26T22:48:04;15.26;89.68
14154;DHT22;7157;53.144;7.570;2022-10-26T22:58:12;15.18;89.69
14154;DHT22;7157;53.144;7.570;2022-10-26T23:08:16;15.02;89.57
14154;DHT22;7157;53.144;7.570;2022-10-26T23:18:19;14.86;89.97
14154;DHT22;7157;53.144;7.570;2022-10-26T23:28:23;14.81;89.83
14154;DHT22;7157;53.144;7.570;2022-10-26T23:38:25;14.80;89.86
14154;DHT22;7157;53.144;7.570;2022-10-26T23:48:29;14.72;90.12
14154;DHT22;7157;53.144;7.570;2022-10-26T23:58:32;14.63;90.21
